createdAt,value
2019-06-26T00:00:12.929Z,98174.91
2019-06-26T00:02:45.139Z,98174.91
2019-06-26T00:05:16.842Z,98171.40
2019-06-26T00:07:48.532Z,98163.06
2019-06-26T00:10:20.485Z,98163.06
2019-06-26T00:12:53.900Z,98170.90
2019-06-26T00:15:25.635Z,98161.08
2019-06-26T00:17:57.657Z,98177.28
2019-06-26T00:20:29.525Z,98177.28
2019-06-26T00:23:01.059Z,98181.30
2019-06-26T00:25:32.625Z,98175.80
2019-06-26T00:28:04.272Z,98170.13
2019-06-26T00:30:36.105Z,98170.13
2019-06-26T00:33:07.931Z,98174.98
2019-06-26T00:35:39.519Z,98175.20
2019-06-26T00:38:11.165Z,98171.90
2019-06-26T00:40:42.795Z,98165.22
2019-06-26T00:43:14.623Z,98165.22
2019-06-26T00:45:46.468Z,98172.02
2019-06-26T00:48:18.232Z,98166.77
2019-06-26T00:50:51.123Z,98172.23
2019-06-26T00:53:22.779Z,98171.29
2019-06-26T00:55:55.288Z,98171.29
2019-06-26T00:58:27.212Z,98171.80
2019-06-26T01:00:59.221Z,98188.80
2019-06-26T01:03:30.821Z,98187.37
2019-06-26T01:06:02.145Z,98189.83
2019-06-26T01:08:33.561Z,98190.98
2019-06-26T01:11:05.396Z,98191.50
2019-06-26T01:13:36.874Z,98188.00
2019-06-26T01:16:08.789Z,98196.64
2019-06-26T01:18:40.490Z,98196.64
2019-06-26T01:21:12.096Z,98198.78
2019-06-26T01:23:43.872Z,98205.78
2019-06-26T01:26:15.616Z,98199.52
2019-06-26T01:28:47.479Z,98208.58
2019-06-26T01:31:19.495Z,98208.58
2019-06-26T01:33:51.214Z,98207.34
2019-06-26T01:36:24.183Z,98211.14
2019-06-26T01:38:58.066Z,98215.98
2019-06-26T01:41:29.423Z,98215.98
2019-06-26T01:44:13.718Z,98225.64
2019-06-26T01:46:34.479Z,98225.64
2019-06-26T01:49:06.290Z,98228.85
2019-06-26T01:51:37.557Z,98229.38
2019-06-26T01:54:09.450Z,98239.15
2019-06-26T01:56:41.040Z,98238.09
2019-06-26T01:59:12.863Z,98238.09
2019-06-26T02:01:44.941Z,98231.53
2019-06-26T02:04:16.189Z,98226.19
2019-06-26T02:06:47.702Z,98227.50
2019-06-26T02:09:19.107Z,98224.39
2019-06-26T02:11:50.774Z,98224.39
2019-06-26T02:14:31.181Z,98229.52
2019-06-26T02:16:55.716Z,98222.97
2019-06-26T02:19:27.363Z,98219.73
2019-06-26T02:21:59.108Z,98223.25
2019-06-26T02:24:30.786Z,98226.21
2019-06-26T02:27:02.166Z,98226.21
2019-06-26T02:29:34.060Z,98224.97
2019-06-26T02:32:05.601Z,98234.50
2019-06-26T02:34:37.226Z,98236.11
2019-06-26T02:37:08.731Z,98230.86
2019-06-26T02:39:40.270Z,98230.86
2019-06-26T02:42:11.872Z,98245.41
2019-06-26T02:44:53.043Z,98245.09
2019-06-26T02:47:20.101Z,98238.32
2019-06-26T02:49:50.010Z,98238.32
2019-06-26T02:52:21.473Z,98243.09
2019-06-26T02:54:52.778Z,98245.85
2019-06-26T02:57:24.547Z,98246.64
2019-06-26T02:59:56.330Z,98245.61
2019-06-26T03:02:27.777Z,98250.91
2019-06-26T03:04:59.747Z,98250.91
2019-06-26T03:07:32.078Z,98240.86
2019-06-26T03:10:03.449Z,98243.95
2019-06-26T03:12:34.901Z,98247.98
2019-06-26T03:15:09.404Z,98247.98
2019-06-26T03:17:54.045Z,98246.84
2019-06-26T03:20:14.882Z,98255.06
2019-06-26T03:22:46.215Z,98255.06
2019-06-26T03:25:17.715Z,98251.52
2019-06-26T03:27:49.554Z,98252.38
2019-06-26T03:30:21.712Z,98261.83
2019-06-26T03:32:53.557Z,98261.83
2019-06-26T03:35:25.251Z,98252.12
2019-06-26T03:37:57.255Z,98252.12
2019-06-26T03:40:28.775Z,98247.88
2019-06-26T03:43:00.406Z,98247.43
2019-06-26T03:45:31.917Z,98247.43
2019-06-26T03:48:03.203Z,98249.81
2019-06-26T03:50:34.976Z,98249.81
2019-06-26T03:53:06.274Z,98249.77
2019-06-26T03:55:37.990Z,98241.41
2019-06-26T03:58:09.865Z,98237.45
2019-06-26T04:00:42.985Z,98237.45
2019-06-26T04:03:14.405Z,98235.49
2019-06-26T04:05:45.694Z,98237.06
2019-06-26T04:08:17.078Z,98237.06
2019-06-26T04:10:48.920Z,98236.80
2019-06-26T04:13:20.458Z,98236.80
2019-06-26T04:15:52.213Z,98222.18
2019-06-26T04:18:23.551Z,98222.18
2019-06-26T04:20:55.435Z,98226.72
2019-06-26T04:23:27.170Z,98223.05
2019-06-26T04:25:58.575Z,98226.52
2019-06-26T04:28:30.005Z,98229.66
2019-06-26T04:31:02.165Z,98229.66
2019-06-26T04:33:33.993Z,98236.13
2019-06-26T04:36:05.558Z,98231.63
2019-06-26T04:38:36.822Z,98234.88
2019-06-26T04:41:08.522Z,98235.20
2019-06-26T04:43:40.598Z,98235.20
2019-06-26T04:46:12.207Z,98233.84
2019-06-26T04:48:43.638Z,98232.52
2019-06-26T04:51:15.222Z,98226.56
2019-06-26T04:53:46.676Z,98224.66
2019-06-26T04:56:17.999Z,98215.06
2019-06-26T04:58:49.353Z,98215.06
2019-06-26T05:01:21.273Z,98212.28
2019-06-26T05:03:52.645Z,98209.58
2019-06-26T05:06:23.966Z,98209.58
2019-06-26T05:08:55.524Z,98208.23
2019-06-26T05:11:26.972Z,98211.73
2019-06-26T05:13:58.284Z,98211.73
2019-06-26T05:16:29.808Z,98203.63
2019-06-26T05:19:01.339Z,98211.81
2019-06-26T05:21:32.894Z,98202.28
2019-06-26T05:24:04.453Z,98194.59
2019-06-26T05:26:35.989Z,98194.59
2019-06-26T05:29:08.725Z,98197.87
2019-06-26T05:31:40.969Z,98191.75
2019-06-26T05:34:12.348Z,98195.86
2019-06-26T05:36:43.911Z,98195.86
2019-06-26T05:39:15.414Z,98193.25
2019-06-26T05:41:47.026Z,98193.69
2019-06-26T05:44:18.765Z,98187.34
2019-06-26T05:46:50.382Z,98188.20
2019-06-26T05:49:21.996Z,98188.39
2019-06-26T05:51:53.464Z,98175.55
2019-06-26T05:54:25.149Z,98170.40
2019-06-26T05:56:56.551Z,98172.05
2019-06-26T05:59:27.840Z,98163.51
2019-06-26T06:02:00.559Z,98167.67
2019-06-26T06:04:32.271Z,98166.33
2019-06-26T06:07:04.231Z,98166.33
2019-06-26T06:09:35.446Z,98166.02
2019-06-26T06:12:07.095Z,98160.54
2019-06-26T06:14:38.587Z,98162.00
2019-06-26T06:17:10.030Z,98162.00
2019-06-26T06:19:41.442Z,98153.61
2019-06-26T06:22:12.850Z,98142.13
2019-06-26T06:24:44.398Z,98142.13
2019-06-26T06:27:16.083Z,98137.68
2019-06-26T06:29:48.362Z,98136.38
2019-06-26T06:32:20.476Z,98127.67
2019-06-26T06:34:51.829Z,98125.45
2019-06-26T06:37:23.201Z,98123.76
2019-06-26T06:42:43.304Z,98117.90
2019-06-26T06:45:15.069Z,98115.42
2019-06-26T06:47:47.548Z,98109.09
2019-06-26T06:50:19.330Z,98103.48
2019-06-26T06:52:51.148Z,98103.48
2019-06-26T06:55:23.204Z,98095.47
2019-06-26T06:57:55.742Z,98089.28
2019-06-26T07:00:30.923Z,98089.28
2019-06-26T07:03:05.183Z,98080.59
2019-06-26T07:05:37.971Z,98071.41
2019-06-26T07:08:10.418Z,98075.64
2019-06-26T07:10:44.476Z,98064.20
2019-06-26T07:13:18.719Z,98064.20
2019-06-26T07:15:52.925Z,98051.29
2019-06-26T07:18:26.610Z,98049.05
2019-06-26T07:21:00.340Z,98049.05
2019-06-26T07:23:34.242Z,98050.14
2019-06-26T07:26:09.200Z,98040.91
2019-06-26T07:28:42.982Z,98037.09
2019-06-26T07:31:15.607Z,98031.31
2019-06-26T07:33:47.031Z,98032.78
2019-06-26T07:36:18.404Z,98027.01
2019-06-26T07:38:50.011Z,98031.41
2019-06-26T07:41:21.607Z,98020.69
2019-06-26T07:43:54.857Z,98018.95
2019-06-26T07:46:26.227Z,98016.06
2019-06-26T07:48:57.786Z,98010.05
2019-06-26T07:51:29.428Z,98008.22
2019-06-26T07:54:00.892Z,98005.33
2019-06-26T07:56:32.796Z,97998.01
2019-06-26T07:59:04.216Z,98004.18
2019-06-26T08:01:35.886Z,97994.97
2019-06-26T08:04:08.019Z,97992.57
2019-06-26T08:06:39.505Z,97978.52
2019-06-26T08:09:11.057Z,97978.52
2019-06-26T08:11:42.533Z,97964.35
2019-06-26T08:14:14.569Z,97957.67
2019-06-26T08:16:45.984Z,97957.67
2019-06-26T08:19:17.547Z,97962.64
2019-06-26T08:21:50.016Z,97963.06
2019-06-26T08:24:21.641Z,97963.06
2019-06-26T08:26:53.153Z,97969.80
2019-06-26T08:29:26.687Z,97960.64
2019-06-26T08:31:57.955Z,97952.81
2019-06-26T08:34:30.000Z,97943.67
2019-06-26T08:37:01.711Z,97952.13
2019-06-26T08:39:33.356Z,97982.26
2019-06-26T08:42:05.274Z,97989.23
2019-06-26T08:44:36.683Z,98079.30
2019-06-26T08:47:08.335Z,98077.42
2019-06-26T08:49:39.999Z,98077.42
2019-06-26T08:52:11.608Z,98057.08
2019-06-26T08:54:44.515Z,98028.49
2019-06-26T08:57:16.026Z,97999.29
2019-06-26T08:59:47.667Z,97986.86
2019-06-26T09:02:19.368Z,97972.34
2019-06-26T09:04:52.339Z,97972.34
2019-06-26T09:07:25.131Z,97957.71
2019-06-26T09:09:57.903Z,97951.97
2019-06-26T09:12:29.564Z,97946.48
2019-06-26T09:15:02.090Z,97974.44
2019-06-26T09:17:33.878Z,97986.83
2019-06-26T09:20:05.752Z,97986.83
2019-06-26T09:22:37.484Z,97978.12
2019-06-26T09:25:21.455Z,97986.75
2019-06-26T09:27:45.191Z,97985.00
2019-06-26T09:30:17.935Z,97980.44
2019-06-26T09:32:51.726Z,97977.47
2019-06-26T09:35:26.370Z,97974.83
2019-06-26T09:38:00.600Z,97977.23
2019-06-26T09:40:34.455Z,97976.17
2019-06-26T09:43:07.318Z,97976.50
2019-06-26T09:45:41.580Z,97972.26
2019-06-26T09:48:16.031Z,97954.78
2019-06-26T09:50:50.255Z,97954.78
2019-06-26T09:53:24.008Z,97947.37
2019-06-26T09:55:55.723Z,97939.56
2019-06-26T09:58:27.608Z,97941.98
2019-06-26T10:00:59.222Z,97943.28
2019-06-26T10:03:30.726Z,97943.28
2019-06-26T10:06:02.422Z,97917.95
2019-06-26T10:08:33.971Z,97928.26
2019-06-26T10:11:05.612Z,97928.26
2019-06-26T10:13:37.389Z,97889.14
2019-06-26T10:16:08.758Z,97889.14
2019-06-26T10:18:40.291Z,97876.95
2019-06-26T10:21:11.938Z,97876.95
2019-06-26T10:23:43.620Z,97864.53
2019-06-26T10:26:16.338Z,97852.16
2019-06-26T10:28:47.797Z,97846.71
2019-06-26T10:31:19.491Z,97837.81
2019-06-26T10:33:50.710Z,97829.44
2019-06-26T10:36:24.599Z,97823.96
2019-06-26T10:38:55.877Z,97827.59
2019-06-26T10:41:27.522Z,97827.59
2019-06-26T10:43:58.765Z,97825.66
2019-06-26T10:46:30.337Z,97821.47
2019-06-26T10:49:01.752Z,97821.47
2019-06-26T10:51:33.022Z,97812.42
2019-06-26T10:54:04.493Z,97812.80
2019-06-26T10:56:36.255Z,97793.73
2019-06-26T10:59:07.819Z,97796.25
2019-06-26T11:01:39.633Z,97796.25
2019-06-26T11:04:11.376Z,97787.89
2019-06-26T11:06:43.366Z,97771.16
2019-06-26T11:09:14.727Z,97772.72
2019-06-26T11:11:46.394Z,97772.72
2019-06-26T11:14:17.977Z,97770.79
2019-06-26T11:16:51.773Z,97772.52
2019-06-26T11:19:23.338Z,97772.80
2019-06-26T11:21:54.975Z,97775.09
2019-06-26T11:24:26.465Z,97775.09
2019-06-26T11:26:57.864Z,97772.19
2019-06-26T11:29:29.570Z,97767.14
2019-06-26T11:32:00.968Z,97767.14
2019-06-26T11:34:33.431Z,97760.06
2019-06-26T11:37:05.219Z,97761.84
2019-06-26T11:39:37.222Z,97759.61
2019-06-26T11:42:08.820Z,97757.56
2019-06-26T11:44:40.431Z,97759.25
2019-06-26T11:47:11.933Z,97755.45
2019-06-26T11:49:55.877Z,97753.54
2019-06-26T11:52:18.996Z,97749.95
2019-06-26T11:55:01.723Z,97742.42
2019-06-26T11:57:23.645Z,97742.42
2019-06-26T11:59:55.203Z,97745.63
2019-06-26T12:02:26.520Z,97745.63
2019-06-26T12:04:58.104Z,97751.59
2019-06-26T12:07:29.978Z,97751.59
2019-06-26T12:10:01.600Z,97739.22
2019-06-26T12:12:33.305Z,97737.27
2019-06-26T12:15:05.522Z,97737.27
2019-06-26T12:17:37.116Z,97739.27
2019-06-26T12:20:18.668Z,97727.89
2019-06-26T12:22:42.759Z,97724.59
2019-06-26T12:25:15.128Z,97724.59
2019-06-26T12:27:46.961Z,97722.69
2019-06-26T12:30:18.765Z,97726.97
2019-06-26T12:33:02.207Z,97726.97
2019-06-26T12:35:23.977Z,97724.47
2019-06-26T12:37:56.149Z,97724.47
2019-06-26T12:40:30.904Z,97738.81
2019-06-26T12:43:01.735Z,97742.92
2019-06-26T12:45:33.555Z,97749.69
2019-06-26T12:48:05.021Z,97747.92
2019-06-26T12:50:36.503Z,97755.44
2019-06-26T12:53:08.083Z,97748.65
2019-06-26T12:55:39.762Z,97743.22
2019-06-26T12:58:14.787Z,97739.40
2019-06-26T13:00:45.133Z,97739.40
2019-06-26T13:03:16.795Z,97743.57
2019-06-26T13:05:48.494Z,97749.69
2019-06-26T13:08:20.529Z,97762.32
2019-06-26T13:10:52.987Z,97761.28
2019-06-26T13:13:24.221Z,97761.28
2019-06-26T13:15:55.726Z,97771.94
2019-06-26T13:18:28.185Z,97771.94
2019-06-26T13:20:59.735Z,97772.67
2019-06-26T13:23:32.879Z,97780.04
2019-06-26T13:26:04.805Z,97778.39
2019-06-26T13:28:36.744Z,97782.03
2019-06-26T13:31:08.209Z,97793.58
2019-06-26T13:33:40.200Z,97793.58
2019-06-26T13:36:11.710Z,97794.80
2019-06-26T13:38:43.450Z,97794.66
2019-06-26T13:41:14.792Z,97796.53
2019-06-26T13:43:46.566Z,97792.89
2019-06-26T13:46:18.200Z,97796.13
2019-06-26T13:48:49.976Z,97797.41
2019-06-26T13:51:21.743Z,97797.41
2019-06-26T13:53:53.669Z,97816.20
2019-06-26T13:56:25.393Z,97816.20
2019-06-26T13:58:57.388Z,97820.46
2019-06-26T14:01:28.607Z,97838.69
2019-06-26T14:04:00.568Z,97829.22
2019-06-26T14:06:32.413Z,97829.22
2019-06-26T14:09:06.608Z,97833.94
2019-06-26T14:11:38.993Z,97833.27
2019-06-26T14:14:10.945Z,97833.27
2019-06-26T14:16:42.760Z,97826.58
2019-06-26T14:19:16.216Z,97835.89
2019-06-26T14:21:47.680Z,97828.89
2019-06-26T14:24:19.175Z,97836.61
2019-06-26T14:26:50.751Z,97836.61
2019-06-26T14:29:22.332Z,97834.53
2019-06-26T14:31:53.818Z,97830.07
2019-06-26T14:34:27.885Z,97833.98
2019-06-26T14:36:59.072Z,97833.98
2019-06-26T14:39:31.132Z,97837.17
2019-06-26T14:42:02.604Z,97839.75
2019-06-26T14:44:34.239Z,97845.13
2019-06-26T14:47:06.016Z,97845.13
2019-06-26T14:49:37.594Z,97849.59
2019-06-26T14:52:09.319Z,97849.59
2019-06-26T14:54:40.779Z,97851.20
2019-06-26T14:57:12.180Z,97857.73
2019-06-26T14:59:44.122Z,97860.89
2019-06-26T15:02:16.139Z,97861.80
2019-06-26T15:04:47.512Z,97861.80
2019-06-26T15:07:18.819Z,97857.48
2019-06-26T15:09:50.939Z,97862.75
2019-06-26T15:12:22.297Z,97868.34
2019-06-26T15:14:53.747Z,97877.59
2019-06-26T15:17:25.289Z,97877.59
2019-06-26T15:19:57.777Z,97873.70
2019-06-26T15:22:29.405Z,97873.70
2019-06-26T15:25:02.048Z,97878.34
2019-06-26T15:27:33.557Z,97872.84
2019-06-26T15:30:05.630Z,97872.84
2019-06-26T15:32:36.728Z,97867.52
2019-06-26T15:35:09.305Z,97875.77
2019-06-26T15:37:40.434Z,97876.84
2019-06-26T15:40:13.894Z,97883.30
2019-06-26T15:42:44.778Z,97893.64
2019-06-26T15:45:16.230Z,97892.34
2019-06-26T15:47:47.729Z,97900.78
2019-06-26T15:50:19.437Z,97910.34
2019-06-26T15:52:50.992Z,97915.97
2019-06-26T15:55:22.594Z,97915.97
2019-06-26T15:57:54.269Z,97915.10
2019-06-26T16:00:26.291Z,97923.66
2019-06-26T16:02:58.105Z,97918.98
2019-06-26T16:05:29.779Z,97932.38
2019-06-26T16:08:01.606Z,97938.34
2019-06-26T16:10:34.735Z,97935.47
2019-06-26T16:13:06.636Z,97937.16
2019-06-26T16:15:38.552Z,97941.37
2019-06-26T16:18:36.466Z,97941.53
2019-06-26T16:21:08.560Z,97946.13
2019-06-26T16:23:40.041Z,97946.13
2019-06-26T16:26:11.476Z,97954.39
2019-06-26T16:28:43.010Z,97954.39
2019-06-26T16:31:15.008Z,97951.72
2019-06-26T16:33:46.372Z,97958.43
2019-06-26T16:36:18.859Z,97961.06
2019-06-26T16:38:50.602Z,97965.28
2019-06-26T16:41:22.891Z,97960.66
2019-06-26T16:43:54.259Z,97960.15
2019-06-26T16:46:25.976Z,97961.82
2019-06-26T16:50:14.380Z,97954.61
2019-06-26T16:52:49.196Z,97966.14
2019-06-26T16:55:17.110Z,97968.11
2019-06-26T16:57:48.488Z,97972.84
2019-06-26T17:00:20.171Z,97972.93
2019-06-26T17:02:51.598Z,97970.14
2019-06-26T17:05:23.047Z,97975.08
2019-06-26T17:07:54.852Z,97972.20
2019-06-26T17:10:26.278Z,97972.22
2019-06-26T17:12:57.978Z,97973.24
2019-06-26T17:15:29.693Z,97975.61
2019-06-26T17:18:01.224Z,97958.62
2019-06-26T17:20:33.667Z,97968.39
2019-06-26T17:23:06.496Z,97967.58
2019-06-26T17:25:38.761Z,97968.50
2019-06-26T17:28:10.417Z,97966.37
2019-06-26T17:30:41.841Z,97962.14
2019-06-26T17:33:13.505Z,97961.02
2019-06-26T17:35:45.004Z,97961.02
2019-06-26T17:38:16.567Z,97961.91
2019-06-26T17:40:47.845Z,97968.52
2019-06-26T17:43:19.428Z,97964.91
2019-06-26T17:45:50.709Z,97968.61
2019-06-26T17:48:22.104Z,97975.55
2019-06-26T17:50:53.559Z,97975.55
2019-06-26T17:53:24.942Z,97979.97
2019-06-26T17:55:56.727Z,97985.02
2019-06-26T17:58:31.202Z,97977.39
2019-06-26T18:01:02.827Z,97977.69
2019-06-26T18:03:34.270Z,97971.75
2019-06-26T18:06:05.976Z,97971.75
2019-06-26T18:08:37.877Z,97972.64
2019-06-26T18:11:09.552Z,97977.80
2019-06-26T18:13:41.559Z,97977.92
2019-06-26T18:16:13.438Z,97972.45
2019-06-26T18:18:45.286Z,97976.99
2019-06-26T18:21:16.573Z,97966.16
2019-06-26T18:23:48.404Z,97966.16
2019-06-26T18:26:20.034Z,97967.42
2019-06-26T18:28:51.482Z,97967.42
2019-06-26T18:31:22.736Z,97969.16
2019-06-26T18:33:54.139Z,97969.16
2019-06-26T18:36:25.550Z,97969.67
2019-06-26T18:38:56.839Z,97973.39
2019-06-26T18:41:28.174Z,97967.84
2019-06-26T18:44:00.130Z,97969.06
2019-06-26T18:46:32.179Z,97969.06
2019-06-26T18:49:03.748Z,97969.16
2019-06-26T18:51:35.344Z,97972.46
2019-06-26T18:54:07.575Z,97969.16
2019-06-26T18:56:39.095Z,97971.53
2019-06-26T18:59:10.656Z,97972.78
2019-06-26T19:01:42.162Z,97964.43
2019-06-26T19:04:13.444Z,97959.90
2019-06-26T19:06:45.473Z,97957.95
2019-06-26T19:09:17.329Z,97959.60
2019-06-26T19:11:48.633Z,97953.63
2019-06-26T19:14:20.659Z,97953.63
2019-06-26T19:16:52.203Z,97949.73
2019-06-26T19:19:23.517Z,97946.75
2019-06-26T19:21:55.182Z,97936.95
2019-06-26T19:24:27.150Z,97936.95
2019-06-26T19:26:58.762Z,97934.91
2019-06-26T19:29:30.177Z,97930.38
2019-06-26T19:32:01.562Z,97929.34
2019-06-26T19:34:33.089Z,97929.34
2019-06-26T19:37:04.861Z,97930.28
2019-06-26T19:39:36.195Z,97923.28
2019-06-26T19:42:07.879Z,97924.34
2019-06-26T19:44:39.897Z,97916.81
2019-06-26T19:47:11.316Z,97916.81
2019-06-26T19:49:42.735Z,97904.37
2019-06-26T19:52:14.321Z,97905.09
2019-06-26T19:54:45.886Z,97905.09
2019-06-26T19:57:17.806Z,97900.95
2019-06-26T19:59:49.369Z,97897.14
2019-06-26T20:02:20.871Z,97897.14
2019-06-26T20:04:52.375Z,97884.99
2019-06-26T20:07:24.178Z,97879.58
2019-06-26T20:09:55.831Z,97879.56
2019-06-26T20:12:27.143Z,97879.56
2019-06-26T20:14:59.839Z,97882.23
2019-06-26T20:17:31.212Z,97874.22
2019-06-26T20:20:02.822Z,97877.35
2019-06-26T20:22:35.757Z,97870.85
2019-06-26T20:25:07.618Z,97874.33
2019-06-26T20:27:39.154Z,97871.12
2019-06-26T20:30:12.099Z,97871.12
2019-06-26T20:32:43.679Z,97868.69
2019-06-26T20:35:14.954Z,97868.18
2019-06-26T20:37:46.422Z,97866.41
2019-06-26T20:40:18.049Z,97858.40
2019-06-26T20:42:49.811Z,97853.16
2019-06-26T20:45:22.094Z,97853.88
2019-06-26T20:47:53.310Z,97860.25
2019-06-26T20:50:24.721Z,97865.11
2019-06-26T20:52:56.075Z,97864.70
2019-06-26T20:55:27.418Z,97861.72
2019-06-26T20:57:58.843Z,97865.09
2019-06-26T21:00:30.525Z,97861.36
2019-06-26T21:03:02.180Z,97860.46
2019-06-26T21:05:33.931Z,97861.20
2019-06-26T21:08:05.332Z,97855.34
2019-06-26T21:10:36.725Z,97859.45
2019-06-26T21:13:08.024Z,97857.31
2019-06-26T21:15:40.008Z,97851.77
2019-06-26T21:18:11.514Z,97849.42
2019-06-26T21:20:43.248Z,97839.56
2019-06-26T21:23:18.675Z,97841.83
2019-06-26T21:25:47.748Z,97831.85
2019-06-26T21:28:19.178Z,97831.85
2019-06-26T21:30:51.879Z,97833.61
2019-06-26T21:33:23.339Z,97833.61
2019-06-26T21:35:54.802Z,97840.29
2019-06-26T21:38:26.471Z,97840.29
2019-06-26T21:40:57.863Z,97851.70
2019-06-26T21:43:36.499Z,97851.02
2019-06-26T21:46:08.272Z,97847.84
2019-06-26T21:48:39.805Z,97849.77
2019-06-26T21:51:11.259Z,97846.52
2019-06-26T21:53:42.494Z,97850.81
2019-06-26T21:56:32.100Z,97847.09
2019-06-26T21:59:21.845Z,97843.61
2019-06-26T22:02:11.617Z,97845.05
2019-06-26T22:04:52.240Z,97845.05
2019-06-26T22:07:25.530Z,97842.58
2019-06-26T22:10:14.969Z,97842.58
2019-06-26T22:12:46.950Z,97844.86
2019-06-26T22:15:18.725Z,97846.59
2019-06-26T22:17:50.799Z,97844.94
2019-06-26T22:20:22.231Z,97846.48
2019-06-26T22:22:53.714Z,97846.67
2019-06-26T22:25:25.237Z,97847.30
2019-06-26T22:27:56.834Z,97849.34
2019-06-26T22:30:28.482Z,97846.28
2019-06-26T22:32:59.878Z,97847.38
2019-06-26T22:35:31.368Z,97847.70
2019-06-26T22:38:02.753Z,97850.48
2019-06-26T22:40:34.428Z,97848.83
2019-06-26T22:43:06.143Z,97852.13
2019-06-26T22:45:37.562Z,97848.32
2019-06-26T22:48:09.342Z,97846.28
2019-06-26T22:50:40.636Z,97837.24
2019-06-26T22:53:12.364Z,97842.39
2019-06-26T22:55:44.169Z,97851.82
2019-06-26T22:58:16.101Z,97857.05
2019-06-26T23:00:47.933Z,97857.05
2019-06-26T23:03:19.506Z,97845.26
2019-06-26T23:05:50.934Z,97848.44
2019-06-26T23:08:22.418Z,97848.44
2019-06-26T23:10:54.156Z,97847.81
2019-06-26T23:13:25.938Z,97853.35
2019-06-26T23:15:57.662Z,97852.33
2019-06-26T23:18:29.369Z,97848.02
2019-06-26T23:21:01.751Z,97856.73
2019-06-26T23:23:33.385Z,97856.73
2019-06-26T23:26:05.183Z,97854.56
2019-06-26T23:28:36.783Z,97854.56
2019-06-26T23:31:08.616Z,97856.52
2019-06-26T23:33:42.957Z,97855.91
2019-06-26T23:36:14.676Z,97859.00
2019-06-26T23:38:46.137Z,97859.00
2019-06-26T23:41:18.173Z,97850.05
2019-06-26T23:43:49.849Z,97853.16
2019-06-26T23:46:21.604Z,97853.16
2019-06-26T23:48:53.208Z,97860.97
2019-06-26T23:51:24.750Z,97860.97
2019-06-26T23:53:56.302Z,97858.04
2019-06-26T23:56:40.044Z,97864.43
2019-06-26T23:59:00.559Z,97864.43
